Time;durP1;ratioP1;P1;durP2;ratioP2;P2;SDS_P1;SDS_P2;PMS_P1;PMS_P2;Temp;Humidity;BMP_temperature;BMP_pressure;BME280_temperature;BME280_humidity;BME280_pressure;Samples;Min_cycle;Max_cycle;Signal;HPM_P1;HPM_P2
2022/09/01 00:01:49;;;;;;;3.27;2.33;;;15.40;99.90;;;;;;6189855;23;20805;-86
2022/09/01 00:04:19;;;;;;;7.63;2.60;;;15.50;99.90;;;;;;6189954;23;20477;-87
2022/09/01 00:06:47;;;;;;;5.27;2.60;;;15.60;99.90;;;;;;6161833;23;20495;-86
2022/09/01 00:09:18;;;;;;;4.65;2.67;;;15.60;99.90;;;;;;6163248;23;20382;-86
2022/09/01 00:11:49;;;;;;;3.70;2.73;;;15.30;99.90;;;;;;6187251;23;20194;-87
2022/09/01 00:14:21;;;;;;;3.47;1.90;;;15.30;99.90;;;;;;6188079;23;20422;-86
2022/09/01 00:16:57;;;;;;;2.45;2.22;;;15.30;99.90;;;;;;6164728;23;20379;-87
2022/09/01 00:19:25;;;;;;;3.40;1.80;;;15.20;99.90;;;;;;6188268;23;20193;-86
2022/09/01 00:21:53;;;;;;;5.40;2.20;;;15.40;99.90;;;;;;6187004;23;20394;-83
2022/09/01 00:24:20;;;;;;;4.60;2.50;;;15.40;99.90;;;;;;6187125;23;20682;-83
2022/09/01 00:26:47;;;;;;;5.23;1.60;;;15.40;99.90;;;;;;6187245;23;20473;-83
2022/09/01 00:29:15;;;;;;;3.37;2.30;;;15.40;99.90;;;;;;6194548;23;20541;-86
2022/09/01 00:31:42;;;;;;;5.43;2.00;;;15.60;99.90;;;;;;6197582;23;20440;-85
2022/09/01 00:34:10;;;;;;;3.10;2.40;;;15.70;99.90;;;;;;6187805;23;20436;-85
2022/09/01 00:36:37;;;;;;;2.87;2.47;;;15.70;99.90;;;;;;6187417;23;20740;-83
2022/09/01 00:39:05;;;;;;;1.77;1.67;;;15.70;99.90;;;;;;6187459;23;20809;-83
2022/09/01 00:41:34;;;;;;;3.90;1.80;;;15.60;99.90;;;;;;6187816;23;20463;-81
2022/09/01 00:44:05;;;;;;;2.90;2.50;;;15.60;99.90;;;;;;6187426;23;20463;-82
2022/09/01 00:46:36;;;;;;;4.27;2.60;;;15.50;99.90;;;;;;6187660;23;20609;-81
2022/09/01 00:49:43;;;;;;;2.60;1.70;;;15.60;99.90;;;;;;6188450;23;20388;-82
2022/09/01 00:52:27;;;;;;;2.00;1.77;;;15.60;99.90;;;;;;6161374;23;20450;-81
2022/09/01 00:54:58;;;;;;;3.07;1.97;;;15.70;99.90;;;;;;6187488;23;20459;-83
2022/09/01 00:57:26;;;;;;;4.83;2.40;;;15.50;99.90;;;;;;6189180;23;20369;-84
2022/09/01 01:00:24;;;;;;;3.00;1.97;;;15.50;99.90;;;;;;6188417;23;20761;-83
2022/09/01 01:02:57;;;;;;;2.83;2.37;;;15.60;99.90;;;;;;6189071;23;20795;-82
2022/09/01 01:05:31;;;;;;;3.77;2.73;;;15.50;99.90;;;;;;6189235;23;20385;-83
2022/09/01 01:08:00;;;;;;;4.33;2.13;;;15.40;99.90;;;;;;6189829;23;20416;-84
2022/09/01 01:10:32;;;;;;;3.60;2.03;;;15.40;99.90;;;;;;6189594;23;20472;-82
2022/09/01 01:13:02;;;;;;;2.30;2.10;;;15.60;99.90;;;;;;6189873;23;20425;-85
2022/09/01 01:15:29;;;;;;;1.63;1.53;;;15.70;99.90;;;;;;6190149;23;20385;-82
2022/09/01 01:17:56;;;;;;;6.90;2.13;;;15.80;99.90;;;;;;6188937;23;20656;-84
2022/09/01 01:23:22;;;;;;;3.27;2.07;;;15.60;99.90;;;;;;6190551;23;20442;-85
2022/09/01 01:25:52;;;;;;;1.93;1.77;;;15.40;99.90;;;;;;6189598;23;20476;-85
2022/09/01 01:28:29;;;;;;;7.03;2.00;;;15.50;99.90;;;;;;6190393;23;20466;-85
2022/09/01 01:31:04;;;;;;;2.53;1.93;;;15.60;99.90;;;;;;6162839;23;20443;-85
2022/09/01 01:33:39;;;;;;;3.73;1.80;;;15.80;99.90;;;;;;6189494;23;20478;-87
2022/09/01 01:36:12;;;;;;;2.43;2.23;;;15.70;99.90;;;;;;6189051;23;20934;-85
2022/09/01 01:38:41;;;;;;;2.07;1.77;;;15.60;99.90;;;;;;6162977;23;20442;-84
2022/09/01 01:41:10;;;;;;;3.30;1.90;;;15.60;99.90;;;;;;6188864;23;20420;-85
2022/09/01 01:43:37;;;;;;;2.10;1.90;;;15.70;99.90;;;;;;6189612;23;20663;-86
2022/09/01 01:46:07;;;;;;;3.53;2.00;;;15.60;99.90;;;;;;6162694;23;20399;-83
2022/09/01 01:48:40;;;;;;;2.28;2.00;;;15.40;99.90;;;;;;6188687;23;20400;-84
2022/09/01 01:51:09;;;;;;;3.67;2.30;;;15.40;99.90;;;;;;6162676;23;20178;-82
2022/09/01 01:53:37;;;;;;;4.30;2.00;;;15.50;99.90;;;;;;6189582;23;20975;-85
2022/09/01 01:56:05;;;;;;;2.37;2.00;;;15.80;99.90;;;;;;6189051;23;20438;-86
2022/09/01 01:58:32;;;;;;;4.03;2.33;;;15.80;99.90;;;;;;6189114;23;20402;-86
2022/09/01 02:00:59;;;;;;;3.13;2.63;;;15.60;99.90;;;;;;6189514;23;20560;-87
2022/09/01 02:03:37;;;;;;;3.10;2.27;;;15.50;99.90;;;;;;6189801;23;20416;-86
2022/09/01 02:06:08;;;;;;;2.20;2.00;;;15.50;99.90;;;;;;6188630;23;20644;-85
2022/09/01 02:08:37;;;;;;;1.73;1.40;;;15.50;99.90;;;;;;6162850;23;20788;-87
2022/09/01 02:11:05;;;;;;;3.33;1.63;;;15.70;99.90;;;;;;6189160;23;20402;-85
2022/09/01 02:13:32;;;;;;;5.30;2.37;;;15.70;99.90;;;;;;6188862;23;20679;-88
2022/09/01 02:16:04;;;;;;;7.30;2.03;;;15.80;99.90;;;;;;6163405;23;20398;-86
2022/09/01 02:18:34;;;;;;;3.40;1.90;;;15.80;99.90;;;;;;6188714;23;20377;-83
2022/09/01 02:21:08;;;;;;;1.83;1.73;;;15.70;99.90;;;;;;6189088;23;20384;-85
2022/09/01 02:23:40;;;;;;;4.17;2.10;;;15.70;99.90;;;;;;6189578;23;20628;-85
2022/09/01 02:26:10;;;;;;;3.40;1.63;;;15.60;99.90;;;;;;6206095;23;20732;-84
2022/09/01 02:28:47;;;;;;;2.63;1.77;;;15.50;99.90;;;;;;6205176;23;20397;-82
2022/09/01 02:31:22;;;;;;;2.23;1.80;;;15.60;99.90;;;;;;6205643;23;20446;-83
2022/09/01 02:33:49;;;;;;;2.13;2.00;;;15.50;99.90;;;;;;6179637;23;20440;-86
2022/09/01 02:36:18;;;;;;;2.60;2.20;;;15.50;99.90;;;;;;6190049;23;20477;-85
2022/09/01 02:38:47;;;;;;;1.97;1.87;;;15.50;99.90;;;;;;6187547;23;20408;-83
2022/09/01 02:41:25;;;;;;;1.60;1.50;;;15.40;99.90;;;;;;6188855;23;20408;-86
2022/09/01 02:43:53;;;;;;;3.03;1.97;;;15.40;99.90;;;;;;6188774;23;20406;-84
2022/09/01 02:46:22;;;;;;;2.27;2.03;;;15.40;99.90;;;;;;6188160;23;20475;-86
2022/09/01 02:48:51;;;;;;;2.37;2.17;;;15.40;99.90;;;;;;6188424;23;20376;-86
2022/09/01 02:51:24;;;;;;;2.27;2.00;;;15.40;99.90;;;;;;6188321;23;20452;-87
2022/09/01 02:53:51;;;;;;;3.00;1.80;;;15.40;99.90;;;;;;6189382;23;20445;-82
2022/09/01 02:56:22;;;;;;;3.73;2.50;;;15.30;99.90;;;;;;6189347;23;20759;-81
2022/09/01 02:58:51;;;;;;;2.40;1.90;;;15.30;99.90;;;;;;6188145;23;20381;-83
2022/09/01 03:01:31;;;;;;;4.70;2.03;;;15.20;99.90;;;;;;6186925;23;20452;-85
2022/09/01 03:04:04;;;;;;;2.30;1.83;;;15.20;99.90;;;;;;6187513;23;20636;-82
2022/09/01 03:06:33;;;;;;;2.20;1.60;;;15.20;99.90;;;;;;6161646;23;20460;-83
2022/09/01 03:09:01;;;;;;;5.17;1.93;;;15.20;99.90;;;;;;6161582;23;20390;-82
2022/09/01 03:11:31;;;;;;;2.20;2.00;;;15.20;99.90;;;;;;6188089;23;20400;-84
2022/09/01 03:13:58;;;;;;;2.17;1.97;;;15.20;99.90;;;;;;6162206;23;20404;-86
2022/09/01 03:16:26;;;;;;;2.87;2.00;;;15.10;99.90;;;;;;6187749;23;20467;-83
2022/09/01 03:18:53;;;;;;;2.10;2.00;;;15.10;99.90;;;;;;6161513;23;20433;-86
2022/09/01 03:21:22;;;;;;;4.75;2.20;;;15.00;99.90;;;;;;6188533;23;20411;-85
2022/09/01 03:23:50;;;;;;;2.30;2.10;;;14.90;99.90;;;;;;6187651;23;20198;-86
2022/09/01 03:26:20;;;;;;;2.40;2.10;;;15.00;99.90;;;;;;6192755;23;20473;-86
2022/09/01 03:28:50;;;;;;;3.20;2.53;;;15.00;99.90;;;;;;6190859;23;20467;-85
2022/09/01 03:31:18;;;;;;;3.90;2.27;;;14.90;99.90;;;;;;6187421;23;20611;-85
2022/09/01 03:33:45;;;;;;;2.13;1.70;;;14.90;99.90;;;;;;6187998;23;20445;-87
2022/09/01 03:36:18;;;;;;;3.27;2.17;;;15.00;99.90;;;;;;6190837;23;20408;-86
2022/09/01 03:38:50;;;;;;;3.03;2.07;;;15.20;99.90;;;;;;6190512;23;20542;-86
2022/09/01 03:41:21;;;;;;;2.27;1.70;;;15.40;99.90;;;;;;6189070;23;20467;-83
2022/09/01 03:43:48;;;;;;;5.57;2.80;;;15.20;99.90;;;;;;6190263;23;20493;-86
2022/09/01 03:46:20;;;;;;;7.13;3.03;;;15.20;99.90;;;;;;6191356;23;20537;-86
2022/09/01 03:48:57;;;;;;;3.28;2.65;;;15.40;99.90;;;;;;6166321;23;20567;-87
2022/09/01 03:51:25;;;;;;;5.15;4.22;;;15.40;99.90;;;;;;6192406;23;20361;-86
2022/09/01 03:53:56;;;;;;;9.47;8.70;;;15.30;99.90;;;;;;6190526;23;20212;-86
2022/09/01 03:56:26;;;;;;;8.65;7.95;;;15.20;99.90;;;;;;6190840;23;20368;-85
2022/09/01 03:58:56;;;;;;;4.83;4.37;;;15.20;99.90;;;;;;6190396;23;20179;-84
2022/09/01 04:01:25;;;;;;;3.43;2.90;;;15.10;99.90;;;;;;6162274;23;20476;-84
2022/09/01 04:03:53;;;;;;;3.38;2.10;;;15.10;99.90;;;;;;6191436;23;20426;-83
2022/09/01 04:06:22;;;;;;;2.93;2.10;;;15.30;99.90;;;;;;6188148;23;20217;-84
2022/09/01 04:09:01;;;;;;;2.83;2.63;;;15.10;99.90;;;;;;6188993;23;20444;-84
2022/09/01 04:11:31;;;;;;;2.58;2.35;;;15.10;99.90;;;;;;6186928;23;20385;-82
2022/09/01 04:14:00;;;;;;;2.70;2.30;;;15.00;99.90;;;;;;6185737;23;20390;-83
2022/09/01 04:19:24;;;;;;;3.80;2.07;;;15.10;99.90;;;;;;6187252;23;20381;-85
2022/09/01 04:21:54;;;;;;;2.70;2.42;;;14.90;99.90;;;;;;6187249;23;20452;-84
2022/09/01 04:24:26;;;;;;;3.05;2.35;;;14.90;99.90;;;;;;6190078;23;20197;-84
2022/09/01 04:26:57;;;;;;;3.67;3.20;;;15.00;99.90;;;;;;6189002;23;20387;-84
2022/09/01 04:29:26;;;;;;;2.93;2.60;;;14.90;99.90;;;;;;6189789;23;20415;-85
2022/09/01 04:31:55;;;;;;;2.60;2.40;;;15.00;99.90;;;;;;6189934;23;20467;-84
2022/09/01 04:34:23;;;;;;;7.20;2.83;;;15.00;99.90;;;;;;6187416;23;20588;-85
2022/09/01 04:36:53;;;;;;;4.23;3.30;;;14.90;99.90;;;;;;6187838;23;20472;-81
2022/09/01 04:39:21;;;;;;;6.40;3.77;;;14.80;99.90;;;;;;6189618;23;20391;-85
2022/09/01 04:41:49;;;;;;;5.13;2.87;;;15.10;99.90;;;;;;6188655;23;20476;-83
2022/09/01 04:44:17;;;;;;;3.93;3.53;;;15.10;99.90;;;;;;6188643;23;20419;-85
2022/09/01 04:46:47;;;;;;;4.22;2.55;;;15.20;99.90;;;;;;6189713;23;20408;-84
2022/09/01 04:49:18;;;;;;;3.15;2.75;;;15.10;99.90;;;;;;6189921;23;20209;-85
2022/09/01 04:51:48;;;;;;;5.33;3.03;;;15.30;99.90;;;;;;6190127;23;20510;-84
2022/09/01 04:54:21;;;;;;;2.60;2.20;;;15.50;99.90;;;;;;6190664;23;20446;-84
2022/09/01 04:56:51;;;;;;;4.67;2.97;;;15.40;99.90;;;;;;6190658;23;20439;-84
2022/09/01 04:59:21;;;;;;;6.13;3.42;;;15.50;99.90;;;;;;6190069;23;21025;-84
2022/09/01 05:01:49;;;;;;;6.70;3.28;;;15.70;99.90;;;;;;6165032;23;20187;-81
2022/09/01 05:04:26;;;;;;;6.23;2.87;;;16.00;99.90;;;;;;6163205;23;20196;-83
2022/09/01 05:06:59;;;;;;;3.70;3.17;;;15.70;99.90;;;;;;6188894;23;20498;-85
2022/09/01 05:09:32;;;;;;;4.20;3.27;;;15.80;99.90;;;;;;6188817;23;20446;-84
2022/09/01 05:12:09;;;;;;;4.00;3.47;;;15.70;99.90;;;;;;6187177;23;20460;-82
2022/09/01 05:14:43;;;;;;;7.37;3.30;;;15.80;99.90;;;;;;6189154;23;20565;-84
2022/09/01 05:17:12;;;;;;;5.27;3.07;;;16.10;99.90;;;;;;6163816;23;20646;-84
2022/09/01 05:19:41;;;;;;;4.60;2.87;;;16.50;99.90;;;;;;6191360;23;20758;-85
2022/09/01 05:22:09;;;;;;;2.13;1.87;;;16.70;99.90;;;;;;6194215;23;20757;-82
2022/09/01 05:24:36;;;;;;;5.50;3.50;;;16.80;99.90;;;;;;6189282;23;20605;-84
2022/09/01 05:27:09;;;;;;;6.50;3.30;;;16.50;99.90;;;;;;6188704;23;20394;-84
2022/09/01 05:29:40;;;;;;;3.93;2.60;;;16.30;99.90;;;;;;6188285;23;20481;-85
2022/09/01 05:32:11;;;;;;;3.40;2.40;;;16.10;99.90;;;;;;6188996;23;20414;-82
2022/09/01 05:34:39;;;;;;;2.40;2.20;;;16.10;99.90;;;;;;6192307;23;20375;-85
2022/09/01 05:37:07;;;;;;;5.93;2.67;;;16.10;99.90;;;;;;6191643;23;20514;-85
2022/09/01 05:39:37;;;;;;;3.07;2.53;;;16.10;99.90;;;;;;6162404;23;20463;-83
2022/09/01 05:42:07;;;;;;;7.07;2.63;;;16.10;99.90;;;;;;6189870;23;20402;-84
2022/09/01 05:44:35;;;;;;;5.57;2.50;;;16.20;99.90;;;;;;6164270;23;20389;-86
2022/09/01 05:47:04;;;;;;;6.23;2.50;;;16.20;99.90;;;;;;6190337;23;20759;-81
2022/09/01 05:49:32;;;;;;;3.40;2.97;;;16.50;99.90;;;;;;6190533;23;20409;-83
2022/09/01 05:52:01;;;;;;;3.17;2.67;;;16.60;99.90;;;;;;6190868;23;20417;-84
2022/09/01 05:54:29;;;;;;;2.90;2.50;;;16.60;99.90;;;;;;6190767;23;20500;-83
2022/09/01 05:56:57;;;;;;;3.43;2.33;;;16.50;99.90;;;;;;6190278;23;20466;-83
2022/09/01 05:59:52;;;;;;;4.23;2.63;;;16.40;99.90;;;;;;6188089;23;20390;-84
2022/09/01 06:02:22;;;;;;;5.60;2.10;;;16.40;99.90;;;;;;6162694;23;20402;-85
2022/09/01 06:04:55;;;;;;;3.83;2.70;;;16.50;99.90;;;;;;6188891;23;20782;-82
2022/09/01 06:07:22;;;;;;;3.63;2.07;;;16.50;99.90;;;;;;6190563;23;20957;-85
2022/09/01 06:09:52;;;;;;;4.57;2.27;;;16.60;99.90;;;;;;6191837;23;20452;-84
2022/09/01 06:12:22;;;;;;;3.70;1.97;;;16.60;99.90;;;;;;6194621;23;20402;-84
2022/09/01 06:14:52;;;;;;;6.10;2.97;;;16.80;99.90;;;;;;6200804;23;20430;-85
2022/09/01 06:17:24;;;;;;;4.30;2.60;;;16.90;99.90;;;;;;6202675;23;20401;-84
2022/09/01 06:19:55;;;;;;;3.03;2.30;;;16.90;99.90;;;;;;6203715;23;20192;-87
2022/09/01 06:22:24;;;;;;;5.00;2.73;;;17.00;99.90;;;;;;6170048;23;20415;-90
2022/09/01 06:24:54;;;;;;;3.70;3.30;;;17.30;99.90;;;;;;6195749;23;20425;-89
2022/09/01 06:27:31;;;;;;;3.17;2.53;;;17.50;99.90;;;;;;6196034;23;20370;-86
2022/09/01 06:30:00;;;;;;;4.73;2.60;;;17.80;99.90;;;;;;6194948;23;20394;-87
2022/09/01 06:32:32;;;;;;;3.00;2.70;;;18.00;99.90;;;;;;6194818;23;20445;-84
2022/09/01 06:35:00;;;;;;;3.17;2.07;;;18.70;99.90;;;;;;6193248;23;20701;-89
2022/09/01 06:37:31;;;;;;;3.00;2.23;;;18.50;99.90;;;;;;6193737;23;20453;-86
2022/09/01 06:39:58;;;;;;;2.70;2.47;;;18.30;99.90;;;;;;6191690;23;20421;-88
2022/09/01 06:42:25;;;;;;;4.20;3.00;;;18.30;99.90;;;;;;6191952;23;20464;-87
2022/09/01 06:44:55;;;;;;;7.20;2.40;;;18.90;99.90;;;;;;6190947;23;20394;-91
2022/09/01 06:47:27;;;;;;;2.27;1.93;;;19.10;99.90;;;;;;6169759;23;20994;-90
2022/09/01 06:49:58;;;;;;;4.60;2.53;;;19.20;99.90;;;;;;6191218;23;20684;-86
2022/09/01 06:52:27;;;;;;;2.40;2.13;;;19.10;99.90;;;;;;6195391;23;20391;-90
2022/09/01 06:55:15;;;;;;;4.30;3.00;;;19.30;99.90;;;;;;6157176;23;20463;-85
2022/09/01 06:57:51;;;;;;;3.20;2.20;;;19.60;99.90;;;;;;6137263;23;20936;-84
2022/09/01 07:00:40;;;;;;;4.33;1.97;;;19.60;99.90;;;;;;6162709;23;20377;-87
2022/09/01 07:03:13;;;;;;;3.10;2.10;;;20.30;99.90;;;;;;6144448;23;20377;-88
2022/09/01 07:05:57;;;;;;;4.17;2.67;;;22.60;99.90;;;;;;6169786;23;20406;-86
2022/09/01 07:08:29;;;;;;;2.80;2.37;;;24.30;99.90;;;;;;6165519;23;20346;-86
2022/09/01 07:10:58;;;;;;;6.43;2.60;;;24.20;99.90;;;;;;6165080;23;20652;-87
2022/09/01 07:37:55;;;;;;;3.30;2.37;;;23.40;99.90;;;;;;6140221;23;20462;-87
2022/09/01 07:40:41;;;;;;;2.10;1.90;;;23.20;99.90;;;;;;6140714;23;20666;-86
2022/09/01 07:43:52;;;;;;;3.50;2.40;;;23.20;99.90;;;;;;6182353;23;20434;-88
2022/09/01 07:59:39;;;;;;;2.57;1.70;;;27.70;99.90;;;;;;6194015;23;20420;-90
2022/09/01 08:02:07;;;;;;;2.00;1.77;;;27.70;99.90;;;;;;6180496;23;20453;-89
2022/09/01 08:07:37;;;;;;;2.40;1.90;;;28.80;99.10;;;;;;6135804;23;20443;-86
2022/09/01 08:13:00;;;;;;;2.80;1.53;;;31.00;95.10;;;;;;6152808;23;20551;-86
2022/09/01 08:15:32;;;;;;;2.40;1.43;;;30.50;94.20;;;;;;6145184;23;20441;-85
2022/09/01 08:18:19;;;;;;;1.80;1.70;;;30.40;92.40;;;;;;6186333;23;20387;-85
2022/09/01 08:20:48;;;;;;;1.57;1.30;;;27.80;96.90;;;;;;6207328;23;20412;-85
2022/09/01 08:23:18;;;;;;;1.40;1.23;;;26.40;97.40;;;;;;6204774;23;20387;-87
2022/09/01 08:25:46;;;;;;;3.90;1.60;;;26.10;98.60;;;;;;6199824;23;20483;-89
2022/09/01 08:28:19;;;;;;;2.00;1.80;;;26.10;99.00;;;;;;6197121;23;20368;-88
2022/09/01 08:30:52;;;;;;;2.90;1.70;;;27.70;97.50;;;;;;6192717;23;20433;-87
2022/09/01 08:33:19;;;;;;;1.50;1.40;;;28.20;96.10;;;;;;6177405;23;20452;-89
2022/09/01 08:35:50;;;;;;;2.10;1.40;;;29.50;94.60;;;;;;6195029;23;20467;-90
2022/09/01 08:38:21;;;;;;;1.33;1.10;;;29.10;94.30;;;;;;6193127;23;20376;-88
2022/09/01 08:40:55;;;;;;;3.43;1.67;;;29.40;92.60;;;;;;6165918;23;20694;-87
2022/09/01 08:43:45;;;;;;;4.00;1.10;;;30.10;92.20;;;;;;6184598;23;20424;-90
2022/09/01 08:46:36;;;;;;;4.10;1.40;;;30.20;90.70;;;;;;6143936;23;20505;-90
2022/09/01 08:49:18;;;;;;;1.90;1.67;;;30.50;90.00;;;;;;6183694;23;20817;-85
2022/09/01 08:52:22;;;;;;;1.20;1.07;;;29.90;90.80;;;;;;6163878;23;20383;-86
2022/09/01 08:55:20;;;;;;;3.10;1.40;;;28.80;90.80;;;;;;6163025;23;20607;-87
2022/09/01 09:00:31;;;;;;;2.50;1.40;;;30.40;88.40;;;;;;6153241;23;20217;-86
2022/09/01 09:03:36;;;;;;;1.10;1.00;;;30.80;83.80;;;;;;6166682;23;20382;-88
2022/09/01 09:06:16;;;;;;;2.30;1.47;;;26.80;92.80;;;;;;6190930;23;20380;-87
2022/09/01 09:08:50;;;;;;;4.33;1.70;;;25.00;96.10;;;;;;6194437;23;20420;-88
2022/09/01 09:11:31;;;;;;;1.63;1.30;;;24.40;97.90;;;;;;6181310;23;20763;-88
2022/09/01 09:14:41;;;;;;;2.00;1.40;;;24.00;99.70;;;;;;6174888;23;20648;-88
2022/09/01 09:17:13;;;;;;;1.40;1.20;;;23.60;99.90;;;;;;6154046;23;20428;-84
2022/09/01 09:19:43;;;;;;;2.93;1.30;;;23.10;99.90;;;;;;6194441;23;20471;-82
2022/09/01 09:22:16;;;;;;;2.23;1.00;;;22.00;99.90;;;;;;6190252;23;20434;-81
2022/09/01 09:24:58;;;;;;;2.87;1.73;;;21.70;99.90;;;;;;6192430;23;20449;-84
2022/09/01 09:27:29;;;;;;;1.47;1.37;;;21.70;99.90;;;;;;6167081;23;20418;-87
2022/09/01 09:30:25;;;;;;;1.90;1.10;;;21.80;99.90;;;;;;6193226;23;20363;-88
2022/09/01 09:33:02;;;;;;;1.10;1.00;;;22.20;99.90;;;;;;6196510;23;20377;-86
2022/09/01 09:35:49;;;;;;;1.20;1.03;;;22.20;99.90;;;;;;6195336;23;20418;-85
2022/09/01 09:38:27;;;;;;;2.80;1.50;;;21.90;99.90;;;;;;6196108;23;20409;-87
2022/09/01 09:40:57;;;;;;;0.93;0.83;;;21.70;99.90;;;;;;6197549;23;20405;-83
2022/09/01 09:43:57;;;;;;;1.20;0.80;;;22.20;99.90;;;;;;6198592;23;20517;-84
2022/09/01 09:46:26;;;;;;;3.03;1.40;;;21.90;99.90;;;;;;6198447;23;20437;-89
2022/09/01 09:49:10;;;;;;;2.53;1.37;;;22.00;99.90;;;;;;6197971;23;20572;-85
2022/09/01 09:51:40;;;;;;;7.50;2.00;;;22.10;99.90;;;;;;6194059;23;20403;-87
2022/09/01 09:54:29;;;;;;;1.90;1.63;;;21.90;99.90;;;;;;6166911;23;20448;-86
2022/09/01 09:57:12;;;;;;;1.57;1.27;;;21.60;99.90;;;;;;6194573;23;20402;-89
2022/09/01 09:59:46;;;;;;;3.23;1.20;;;21.60;99.90;;;;;;6195258;23;20470;-87
2022/09/01 10:02:36;;;;;;;1.57;1.30;;;21.40;99.90;;;;;;6177156;23;20440;-85
2022/09/01 10:05:44;;;;;;;1.60;1.10;;;21.50;99.90;;;;;;6229753;23;20430;-82
2022/09/01 10:08:36;;;;;;;1.57;1.10;;;21.10;99.90;;;;;;6210023;23;20413;-87
2022/09/01 10:11:05;;;;;;;2.50;1.23;;;20.50;99.90;;;;;;6227539;23;20365;-85
2022/09/01 10:13:35;;;;;;;2.00;1.23;;;20.30;99.90;;;;;;6226829;23;20424;-89
2022/09/01 10:16:23;;;;;;;1.37;1.20;;;20.40;99.90;;;;;;6226640;23;20456;-86
2022/09/01 10:18:59;;;;;;;3.43;1.23;;;20.90;99.90;;;;;;6203524;23;20930;-88
2022/09/01 10:21:34;;;;;;;3.03;1.50;;;21.50;99.90;;;;;;6204561;23;20337;-89
2022/09/01 10:26:46;;;;;;;1.83;0.80;;;22.40;99.90;;;;;;6154256;23;20469;-85
2022/09/01 10:29:59;;;;;;;1.97;1.40;;;21.70;99.90;;;;;;6174809;23;20411;-85
2022/09/01 10:32:55;;;;;;;4.47;1.57;;;20.50;99.90;;;;;;6159556;23;20413;-86
2022/09/01 10:35:38;;;;;;;1.63;1.40;;;20.20;99.90;;;;;;6183571;23;20447;-88
2022/09/01 10:38:09;;;;;;;1.63;0.90;;;20.20;99.90;;;;;;6223283;23;20394;-87
2022/09/01 10:40:45;;;;;;;2.90;1.40;;;20.10;99.90;;;;;;6222253;23;20616;-86
2022/09/01 10:43:40;;;;;;;1.30;1.20;;;20.00;99.90;;;;;;6223674;23;20475;-85
2022/09/01 10:46:23;;;;;;;2.70;1.10;;;20.20;99.90;;;;;;6206665;23;20448;-87
2022/09/01 10:49:17;;;;;;;2.97;1.20;;;20.90;99.90;;;;;;6225204;23;20679;-86
2022/09/01 10:51:53;;;;;;;1.90;1.10;;;21.30;99.90;;;;;;6223877;23;20359;-88
2022/09/01 10:54:40;;;;;;;1.20;1.10;;;21.50;99.90;;;;;;6224932;23;20420;-87
2022/09/01 10:57:50;;;;;;;1.30;1.10;;;21.80;99.90;;;;;;6223495;23;20368;-85
2022/09/01 11:00:40;;;;;;;1.00;0.80;;;21.30;99.90;;;;;;6198273;23;20369;-86
2022/09/01 11:03:30;;;;;;;1.10;1.00;;;20.80;99.90;;;;;;6201550;23;20396;-85
2022/09/01 11:06:07;;;;;;;1.23;0.80;;;20.70;99.90;;;;;;6229159;23;20375;-85
2022/09/01 11:08:57;;;;;;;1.17;1.07;;;20.70;99.90;;;;;;6227174;23;20373;-88
2022/09/01 11:11:29;;;;;;;2.50;0.87;;;21.00;99.90;;;;;;6225129;23;20393;-84
2022/09/01 11:13:57;;;;;;;2.50;0.70;;;20.80;99.90;;;;;;6223370;23;20415;-89
2022/09/01 11:16:38;;;;;;;1.67;0.87;;;20.70;99.90;;;;;;6196784;23;20403;-87
2022/09/01 11:19:38;;;;;;;1.70;0.83;;;20.60;99.90;;;;;;6224727;23;20751;-87
2022/09/01 11:22:20;;;;;;;2.30;1.53;;;20.80;99.90;;;;;;6228194;23;20459;-87
2022/09/01 11:25:32;;;;;;;1.33;0.90;;;20.90;99.90;;;;;;6234090;23;20444;-88
2022/09/01 11:28:22;;;;;;;0.80;0.80;;;21.00;99.90;;;;;;6200126;23;20383;-86
2022/09/01 11:31:05;;;;;;;2.07;1.10;;;20.70;99.90;;;;;;6224891;23;20374;-86
2022/09/01 11:34:09;;;;;;;3.00;1.23;;;20.60;99.90;;;;;;6224765;23;20735;-85
2022/09/01 11:36:46;;;;;;;7.07;0.90;;;20.60;99.90;;;;;;6198734;23;20429;-84
2022/09/01 11:39:17;;;;;;;0.70;0.70;;;20.70;99.90;;;;;;6222978;23;20398;-86
2022/09/01 11:41:55;;;;;;;0.97;0.87;;;20.60;99.90;;;;;;6199944;23;20396;-87
2022/09/01 11:44:53;;;;;;;0.60;0.60;;;20.60;99.90;;;;;;6222258;23;20376;-86
2022/09/01 11:47:36;;;;;;;0.63;0.60;;;20.30;99.90;;;;;;6225838;23;20482;-85
2022/09/01 11:50:08;;;;;;;0.70;0.63;;;20.30;99.90;;;;;;6217717;23;20702;-88
2022/09/01 11:52:37;;;;;;;1.17;1.10;;;20.50;99.90;;;;;;6223256;23;20384;-88
2022/09/01 11:55:07;;;;;;;1.70;0.90;;;20.70;99.90;;;;;;6223767;23;20534;-86
2022/09/01 11:57:36;;;;;;;1.50;0.97;;;20.80;99.90;;;;;;6223635;23;20400;-86
2022/09/01 12:00:28;;;;;;;0.80;0.63;;;20.60;99.90;;;;;;6222067;23;20406;-89
2022/09/01 12:02:55;;;;;;;0.70;0.60;;;20.50;99.90;;;;;;6212881;23;20422;-90
2022/09/01 12:05:30;;;;;;;2.03;0.97;;;20.50;99.90;;;;;;6221583;23;20407;-85
2022/09/01 12:07:59;;;;;;;1.00;0.77;;;20.40;99.90;;;;;;6224284;23;20394;-86
2022/09/01 12:10:29;;;;;;;6.50;1.53;;;20.20;99.90;;;;;;6220885;23;20524;-83
2022/09/01 12:13:06;;;;;;;0.60;0.60;;;20.20;99.90;;;;;;6224760;23;20369;-84
2022/09/01 12:15:37;;;;;;;0.70;0.70;;;20.40;99.90;;;;;;6224786;23;20420;-82
2022/09/01 12:18:26;;;;;;;0.77;0.77;;;20.40;99.90;;;;;;6225544;23;20390;-88
2022/09/01 12:20:58;;;;;;;1.23;0.77;;;20.60;99.90;;;;;;6226046;23;20369;-86
2022/09/01 12:23:34;;;;;;;1.47;0.73;;;20.70;99.90;;;;;;6197537;23;20498;-89
2022/09/01 12:26:12;;;;;;;2.40;0.70;;;20.80;99.90;;;;;;6225503;23;20744;-87
2022/09/01 12:31:15;;;;;;;1.73;0.93;;;20.80;99.90;;;;;;6192201;23;20460;-86
2022/09/01 12:33:43;;;;;;;0.70;0.60;;;20.90;99.90;;;;;;6232307;23;20424;-87
2022/09/01 12:36:26;;;;;;;2.60;1.00;;;20.90;99.90;;;;;;6227074;23;20545;-85
2022/09/01 12:39:16;;;;;;;0.97;0.87;;;20.70;99.90;;;;;;6226996;23;20379;-87
2022/09/01 12:47:46;;;;;;;0.80;0.70;;;21.10;99.90;;;;;;6170269;23;20401;-86
2022/09/01 12:50:17;;;;;;;1.33;0.80;;;21.20;99.90;;;;;;6158614;23;20523;-86
2022/09/01 12:52:57;;;;;;;0.70;0.70;;;21.30;99.90;;;;;;6167612;23;20425;-87
2022/09/01 12:55:26;;;;;;;0.70;0.60;;;21.00;99.90;;;;;;6166264;23;20409;-86
2022/09/01 12:58:22;;;;;;;0.93;0.90;;;20.50;99.90;;;;;;6174692;23;20411;-87
2022/09/01 13:01:07;;;;;;;0.87;0.80;;;20.50;99.90;;;;;;6172793;23;20446;-86
2022/09/01 13:04:02;;;;;;;1.53;1.03;;;20.60;99.90;;;;;;6228065;23;20369;-85
2022/09/01 13:06:29;;;;;;;0.87;0.70;;;20.60;99.90;;;;;;6230101;23;20429;-86
2022/09/01 13:08:57;;;;;;;1.57;0.93;;;20.60;99.90;;;;;;6208348;23;20660;-85
2022/09/01 13:11:36;;;;;;;1.03;1.00;;;20.70;99.90;;;;;;6164324;23;20500;-87
2022/09/01 13:14:24;;;;;;;2.13;0.80;;;21.10;99.90;;;;;;6227609;23;20449;-86
2022/09/01 13:16:52;;;;;;;2.40;1.17;;;21.00;99.90;;;;;;6232610;23;20408;-88
2022/09/01 13:19:22;;;;;;;1.00;0.90;;;20.60;99.90;;;;;;6231992;23;20377;-87
2022/09/01 13:24:31;;;;;;;0.87;0.87;;;20.10;99.90;;;;;;6224576;23;20429;-85
2022/09/01 13:26:58;;;;;;;0.83;0.83;;;20.10;99.90;;;;;;6221274;23;20449;-86
2022/09/01 13:29:45;;;;;;;0.80;0.80;;;20.00;99.90;;;;;;6226455;23;20798;-85
2022/09/01 13:32:14;;;;;;;1.63;0.90;;;19.80;99.90;;;;;;6201718;23;20479;-86
2022/09/01 13:34:45;;;;;;;1.03;0.70;;;19.80;99.90;;;;;;6198260;23;20422;-87
2022/09/01 13:37:12;;;;;;;1.20;0.70;;;20.00;99.90;;;;;;6215041;23;20446;-87
2022/09/01 13:39:40;;;;;;;1.90;1.47;;;20.00;99.90;;;;;;6216598;23;20431;-88
2022/09/01 13:42:07;;;;;;;0.97;0.87;;;20.10;99.90;;;;;;6225484;23;20403;-90
2022/09/01 13:44:41;;;;;;;1.53;0.63;;;20.20;99.90;;;;;;6200167;23;20438;-88
2022/09/01 13:47:08;;;;;;;1.07;0.80;;;20.30;99.90;;;;;;6226464;23;20532;-87
2022/09/01 13:52:29;;;;;;;3.67;1.10;;;20.70;99.90;;;;;;6162252;23;20461;-89
2022/09/01 13:54:56;;;;;;;4.20;0.87;;;21.00;99.90;;;;;;6201304;23;20523;-84
2022/09/01 13:57:23;;;;;;;0.70;0.67;;;21.20;99.90;;;;;;6225166;23;20493;-86
2022/09/01 13:59:50;;;;;;;0.90;0.70;;;21.20;99.90;;;;;;6220147;23;20451;-84
2022/09/01 14:02:19;;;;;;;3.90;0.73;;;21.10;99.90;;;;;;6229271;23;20389;-86
2022/09/01 14:04:47;;;;;;;1.47;0.80;;;20.90;99.90;;;;;;6231326;23;20395;-85
2022/09/01 14:07:15;;;;;;;1.93;0.80;;;20.90;99.90;;;;;;6212539;23;20467;-85
2022/09/01 14:12:19;;;;;;;2.30;1.30;;;20.80;99.90;;;;;;6167042;23;20421;-81
2022/09/01 14:14:46;;;;;;;0.87;0.60;;;20.90;99.90;;;;;;6234748;23;20412;-85
2022/09/01 14:17:35;;;;;;;2.00;1.27;;;20.50;99.90;;;;;;6227641;23;20423;-87
2022/09/01 14:20:05;;;;;;;1.07;0.93;;;20.10;99.90;;;;;;6199857;23;20385;-88
2022/09/01 14:22:33;;;;;;;0.70;0.60;;;19.80;99.90;;;;;;6226944;23;20417;-88
2022/09/01 14:25:06;;;;;;;0.80;0.80;;;19.70;99.90;;;;;;6228432;23;20343;-84
2022/09/01 14:27:37;;;;;;;1.80;1.00;;;19.60;99.90;;;;;;6227219;23;20782;-89
2022/09/01 14:30:13;;;;;;;1.77;0.90;;;19.40;99.90;;;;;;6230106;23;20441;-88
2022/09/01 14:32:41;;;;;;;0.80;0.80;;;19.40;99.90;;;;;;6233342;23;20456;-85
2022/09/01 14:35:09;;;;;;;1.70;0.90;;;19.50;99.90;;;;;;6239908;23;20435;-85
2022/09/01 14:37:37;;;;;;;1.23;0.77;;;19.60;99.90;;;;;;6239279;23;20424;-84